Time;durP1;ratioP1;P1;durP2;ratioP2;P2;SDS_P1;SDS_P2;PMS_P1;PMS_P2;Temp;Humidity;BMP_temperature;BMP_pressure;BME280_temperature;BME280_humidity;BME280_pressure;Samples;Min_cycle;Max_cycle;Signal;HPM_P1;HPM_P2
2022/10/27 00:01:50;;;;;;;3.67;2.75;;;14.90;99.90;;;;;;5077571;28;20111;-39
2022/10/27 00:04:16;;;;;;;4.38;2.60;;;14.90;99.90;;;;;;5064703;28;20097;-39
2022/10/27 00:06:42;;;;;;;4.82;2.70;;;15.00;99.90;;;;;;5065946;28;20071;-42
2022/10/27 00:09:07;;;;;;;3.78;2.80;;;15.00;99.90;;;;;;5064345;28;20385;-38
2022/10/27 00:11:33;;;;;;;4.63;2.80;;;15.10;99.90;;;;;;5073719;28;20029;-39
2022/10/27 00:13:58;;;;;;;4.50;2.72;;;15.10;99.90;;;;;;5079787;28;20667;-40
2022/10/27 00:16:24;;;;;;;4.38;2.72;;;15.10;99.90;;;;;;5079016;28;20814;-38
2022/10/27 00:18:50;;;;;;;5.32;2.95;;;15.10;99.90;;;;;;5077414;28;20028;-39
2022/10/27 00:21:18;;;;;;;3.38;2.75;;;15.00;99.90;;;;;;5081078;28;20028;-40
2022/10/27 00:23:48;;;;;;;4.63;2.53;;;15.00;99.90;;;;;;5075099;28;20046;-40
2022/10/27 00:26:15;;;;;;;3.05;2.75;;;15.00;99.90;;;;;;5081759;28;20478;-40
2022/10/27 00:28:41;;;;;;;3.70;3.10;;;14.90;99.90;;;;;;5072793;28;20040;-40
2022/10/27 00:31:14;;;;;;;4.50;2.80;;;14.90;99.90;;;;;;5083010;28;20107;-40
2022/10/27 00:33:40;;;;;;;5.85;3.00;;;14.90;99.90;;;;;;5072434;28;20042;-40
2022/10/27 00:36:09;;;;;;;3.58;2.75;;;14.90;99.90;;;;;;5083420;28;20032;-40
2022/10/27 00:38:35;;;;;;;4.43;2.60;;;14.80;99.90;;;;;;5072706;28;20093;-40
2022/10/27 00:41:01;;;;;;;3.20;2.80;;;14.70;99.90;;;;;;5083075;28;20622;-38
2022/10/27 00:43:32;;;;;;;3.88;2.75;;;14.70;99.90;;;;;;5070717;28;20024;-41
2022/10/27 00:46:10;;;;;;;3.50;2.90;;;14.70;99.90;;;;;;5083810;28;20114;-39
2022/10/27 00:48:36;;;;;;;4.18;2.85;;;14.60;99.90;;;;;;5070058;28;20032;-39
2022/10/27 00:51:05;;;;;;;3.60;2.72;;;14.60;99.90;;;;;;5083005;28;20353;-37
2022/10/27 00:53:34;;;;;;;3.63;2.70;;;14.60;99.90;;;;;;5069711;28;20117;-39
2022/10/27 00:56:05;;;;;;;5.55;3.35;;;14.60;99.90;;;;;;5062249;28;20039;-38
2022/10/27 00:58:32;;;;;;;4.68;3.78;;;14.50;99.90;;;;;;5073827;28;20635;-42
2022/10/27 01:00:57;;;;;;;5.25;3.88;;;14.50;99.90;;;;;;5064281;28;20530;-40
2022/10/27 01:03:23;;;;;;;4.53;3.80;;;14.40;99.90;;;;;;5070674;28;20555;-40
2022/10/27 01:05:56;;;;;;;5.90;4.30;;;14.40;99.90;;;;;;5069598;28;20034;-41
2022/10/27 01:08:23;;;;;;;5.45;4.10;;;14.40;99.90;;;;;;5075726;28;20033;-40
2022/10/27 01:10:49;;;;;;;5.88;4.32;;;14.40;99.90;;;;;;5077868;28;20024;-40
2022/10/27 01:13:16;;;;;;;5.82;4.68;;;14.40;99.90;;;;;;5077850;28;20032;-40
2022/10/27 01:16:10;;;;;;;6.65;4.43;;;14.40;99.90;;;;;;5074913;28;20024;-39
2022/10/27 01:19:09;;;;;;;5.78;4.43;;;14.40;99.90;;;;;;5077260;28;20103;-41
2022/10/27 01:21:49;;;;;;;5.65;4.57;;;14.30;99.90;;;;;;5081655;28;20032;-39
2022/10/27 01:24:55;;;;;;;5.35;4.57;;;14.30;99.90;;;;;;5072231;28;20031;-40
2022/10/27 01:27:47;;;;;;;7.50;4.72;;;14.20;99.90;;;;;;5021832;28;20537;-40
2022/10/27 01:30:18;;;;;;;5.68;4.05;;;14.20;99.90;;;;;;5070069;28;20040;-37
2022/10/27 01:32:59;;;;;;;4.93;3.78;;;14.20;99.90;;;;;;5083399;28;20059;-41
2022/10/27 01:35:42;;;;;;;6.20;3.97;;;14.20;99.90;;;;;;5070701;28;20027;-35
2022/10/27 01:38:18;;;;;;;4.72;3.58;;;14.20;99.90;;;;;;5081946;28;20035;-40
2022/10/27 01:41:05;;;;;;;4.45;3.70;;;14.20;99.90;;;;;;5073806;28;20027;-39
2022/10/27 01:43:32;;;;;;;5.13;3.40;;;14.20;99.90;;;;;;5063880;28;20490;-40
2022/10/27 01:46:01;;;;;;;4.07;2.88;;;14.20;99.90;;;;;;5073806;28;20047;-39
2022/10/27 01:48:28;;;;;;;4.43;3.25;;;14.20;99.90;;;;;;5062890;28;20536;-40
2022/10/27 01:50:53;;;;;;;4.93;3.22;;;14.20;99.90;;;;;;5075034;28;20039;-38
2022/10/27 01:53:19;;;;;;;4.32;3.20;;;14.20;99.90;;;;;;5062456;28;20013;-40
2022/10/27 01:55:56;;;;;;;5.82;3.00;;;14.20;99.90;;;;;;5075783;28;20024;-40
2022/10/27 01:58:48;;;;;;;6.25;3.20;;;14.20;99.90;;;;;;5062456;28;20025;-37
2022/10/27 02:01:48;;;;;;;3.90;2.88;;;14.30;99.90;;;;;;5070240;28;20016;-40
2022/10/27 02:04:20;;;;;;;4.07;2.88;;;14.30;99.90;;;;;;5084321;28;20032;-39
2022/10/27 02:06:56;;;;;;;;;;;14.30;99.90;;;;;;5068729;28;20124;-40
2022/10/27 02:09:49;;;;;;;4.53;3.00;;;14.40;99.90;;;;;;5067485;28;19924;-40
2022/10/27 02:12:26;;;;;;;3.38;2.90;;;14.40;99.90;;;;;;5075565;28;20065;-41
2022/10/27 02:14:53;;;;;;;4.70;3.17;;;14.40;99.90;;;;;;5085351;28;20356;-40
2022/10/27 02:17:22;;;;;;;3.88;2.47;;;14.50;99.90;;;;;;5074909;28;20038;-40
2022/10/27 02:19:51;;;;;;;3.45;2.80;;;14.50;99.90;;;;;;5085171;28;20752;-39
2022/10/27 02:22:17;;;;;;;3.85;2.72;;;14.50;99.90;;;;;;5075217;28;20032;-40
2022/10/27 02:24:42;;;;;;;4.18;2.88;;;14.60;99.90;;;;;;5085709;28;20078;-39
2022/10/27 02:27:16;;;;;;;5.32;3.10;;;14.60;99.90;;;;;;5074091;28;20036;-40
2022/10/27 02:29:48;;;;;;;5.70;2.80;;;14.70;99.90;;;;;;5086491;28;20028;-39
2022/10/27 02:32:21;;;;;;;4.55;3.10;;;14.70;99.90;;;;;;5072880;28;20359;-41
2022/10/27 02:34:48;;;;;;;4.40;2.88;;;14.70;99.90;;;;;;5086275;28;20057;-38
2022/10/27 02:37:25;;;;;;;3.55;2.88;;;14.70;99.90;;;;;;5072890;28;20495;-38
2022/10/27 02:39:50;;;;;;;4.43;2.83;;;14.70;99.90;;;;;;5086016;28;20490;-38
2022/10/27 02:42:16;;;;;;;4.00;2.95;;;14.70;99.90;;;;;;5072477;28;20107;-41
2022/10/27 02:44:41;;;;;;;5.32;3.53;;;14.70;99.90;;;;;;5085674;28;20459;-39
2022/10/27 02:47:07;;;;;;;6.13;3.53;;;14.70;99.90;;;;;;5074195;28;20024;-40
2022/10/27 02:49:33;;;;;;;3.40;2.78;;;14.70;99.90;;;;;;5084590;28;20479;-40
2022/10/27 02:52:03;;;;;;;5.28;3.13;;;14.70;99.90;;;;;;5078009;28;20073;-40
2022/10/27 02:54:30;;;;;;;4.28;3.40;;;14.70;99.90;;;;;;5081205;28;20593;-40
2022/10/27 02:56:55;;;;;;;7.68;3.75;;;14.70;99.90;;;;;;5079123;28;20032;-38
2022/10/27 02:59:21;;;;;;;5.50;3.63;;;14.60;99.90;;;;;;5079838;28;20028;-41
2022/10/27 03:01:46;;;;;;;9.00;4.25;;;14.60;99.90;;;;;;5080952;28;20020;-34
2022/10/27 03:04:12;;;;;;;6.38;3.90;;;14.60;99.90;;;;;;5076645;28;20027;-36
2022/10/27 03:06:37;;;;;;;5.63;3.40;;;14.60;99.90;;;;;;5083110;28;20028;-38
2022/10/27 03:09:03;;;;;;;6.18;4.25;;;14.60;99.90;;;;;;5073126;28;20039;-41
2022/10/27 03:11:28;;;;;;;7.35;3.67;;;14.60;99.90;;;;;;5082728;28;20020;-38
2022/10/27 03:13:57;;;;;;;5.13;4.18;;;14.60;99.90;;;;;;5073160;28;20550;-41
2022/10/27 03:16:23;;;;;;;7.18;4.15;;;14.60;99.90;;;;;;5084085;28;20073;-40
2022/10/27 03:18:48;;;;;;;5.40;3.97;;;14.50;99.90;;;;;;5072759;28;20395;-40
2022/10/27 03:21:20;;;;;;;5.53;4.15;;;14.60;99.90;;;;;;5085413;28;20044;-36
2022/10/27 03:23:45;;;;;;;6.57;4.18;;;14.60;99.90;;;;;;5071528;28;20031;-41
2022/10/27 03:26:11;;;;;;;5.72;4.20;;;14.60;99.90;;;;;;5084869;28;20383;-41
2022/10/27 03:28:37;;;;;;;5.40;4.47;;;14.50;99.90;;;;;;5072950;28;20024;-40
2022/10/27 03:31:04;;;;;;;7.60;4.50;;;14.50;99.90;;;;;;5084378;28;20024;-40
2022/10/27 03:33:30;;;;;;;5.60;4.82;;;14.50;99.90;;;;;;5074290;28;20078;-37
2022/10/27 03:35:56;;;;;;;5.47;4.45;;;14.50;99.90;;;;;;5083121;28;20020;-39
2022/10/27 03:38:21;;;;;;;7.63;4.85;;;14.50;99.90;;;;;;5077005;28;20025;-38
2022/10/27 03:40:47;;;;;;;6.43;4.97;;;14.50;99.90;;;;;;5080240;28;20161;-41
2022/10/27 03:43:12;;;;;;;6.28;4.70;;;14.50;99.90;;;;;;5080331;28;20065;-39
2022/10/27 03:45:38;;;;;;;7.43;4.57;;;14.50;99.90;;;;;;5077133;28;20039;-38
2022/10/27 03:48:06;;;;;;;6.43;4.95;;;14.50;99.90;;;;;;5083533;28;20021;-40
2022/10/27 03:50:32;;;;;;;5.57;4.90;;;14.40;99.90;;;;;;5073961;28;20036;-38
2022/10/27 03:52:58;;;;;;;7.15;4.97;;;14.50;99.90;;;;;;5082930;28;20096;-41
2022/10/27 03:55:24;;;;;;;7.72;5.18;;;14.40;99.90;;;;;;5073054;28;20024;-40
2022/10/27 03:57:50;;;;;;;6.50;4.90;;;14.40;99.90;;;;;;5083708;28;20020;-39
2022/10/27 04:00:19;;;;;;;6.55;4.88;;;14.40;99.90;;;;;;5073043;28;20032;-40
2022/10/27 04:02:44;;;;;;;6.95;4.88;;;14.40;99.90;;;;;;5085302;28;20024;-38
2022/10/27 04:05:10;;;;;;;5.93;4.70;;;14.40;99.90;;;;;;5071518;28;20053;-34
2022/10/27 04:07:35;;;;;;;6.85;4.72;;;14.40;99.90;;;;;;5068545;28;20024;-39
2022/10/27 04:10:01;;;;;;;5.93;4.45;;;14.40;99.90;;;;;;5076370;28;20067;-38
2022/10/27 04:12:26;;;;;;;5.57;4.15;;;14.40;99.90;;;;;;5063737;28;20032;-40
2022/10/27 04:14:52;;;;;;;5.07;4.20;;;14.40;99.90;;;;;;5073979;28;20396;-38
2022/10/27 04:17:18;;;;;;;6.40;3.90;;;14.40;99.90;;;;;;5066556;28;20415;-40
2022/10/27 04:19:44;;;;;;;4.80;3.83;;;14.40;99.90;;;;;;5070153;28;20028;-39
2022/10/27 04:22:10;;;;;;;5.70;3.70;;;14.40;99.90;;;;;;5067959;28;20038;-40
2022/10/27 04:24:39;;;;;;;5.35;3.60;;;14.40;99.90;;;;;;5067618;28;20391;-41
2022/10/27 04:27:05;;;;;;;5.43;3.45;;;14.40;99.90;;;;;;5071033;28;20020;-40
2022/10/27 04:29:30;;;;;;;5.75;3.90;;;14.40;99.90;;;;;;5065958;28;20036;-40
2022/10/27 04:31:56;;;;;;;5.45;3.70;;;14.40;99.90;;;;;;5073429;28;20068;-39
2022/10/27 04:34:21;;;;;;;5.32;3.60;;;14.40;99.90;;;;;;5063682;28;20121;-40
2022/10/27 04:36:47;;;;;;;3.42;3.13;;;14.40;99.90;;;;;;5075892;28;20023;-41
2022/10/27 04:39:14;;;;;;;8.13;3.10;;;14.40;99.90;;;;;;5064510;28;20565;-38
2022/10/27 04:41:39;;;;;;;4.72;3.47;;;14.40;99.90;;;;;;5074965;28;20540;-41
2022/10/27 04:44:05;;;;;;;4.35;2.92;;;14.40;99.90;;;;;;5064222;28;20028;-39
2022/10/27 04:46:31;;;;;;;3.65;3.35;;;14.40;99.90;;;;;;5075354;28;20024;-38
2022/10/27 04:48:57;;;;;;;6.43;3.08;;;14.40;99.90;;;;;;5063098;28;20111;-38
2022/10/27 04:51:23;;;;;;;4.82;3.25;;;14.40;99.90;;;;;;5074957;28;20039;-40
2022/10/27 04:53:54;;;;;;;6.60;3.53;;;14.30;99.90;;;;;;5063166;28;20103;-41
2022/10/27 04:56:20;;;;;;;3.42;2.83;;;14.40;99.90;;;;;;5073605;28;20039;-40
2022/10/27 04:58:45;;;;;;;6.20;3.30;;;14.40;99.90;;;;;;5065576;28;20849;-41
2022/10/27 05:01:15;;;;;;;4.93;3.15;;;14.40;99.90;;;;;;5070267;28;20103;-40
2022/10/27 05:03:41;;;;;;;6.40;3.53;;;14.40;99.90;;;;;;5067565;28;20020;-40
2022/10/27 05:06:06;;;;;;;5.55;3.85;;;14.40;99.90;;;;;;5066253;28;20853;-39
2022/10/27 05:08:35;;;;;;;6.35;4.05;;;14.30;99.90;;;;;;5063155;28;20766;-40
2022/10/27 05:11:01;;;;;;;6.68;3.80;;;14.30;99.90;;;;;;5069769;28;20016;-39
2022/10/27 05:13:26;;;;;;;4.82;3.90;;;14.30;99.90;;;;;;5073432;28;20043;-40
2022/10/27 05:15:52;;;;;;;5.45;4.30;;;14.30;99.90;;;;;;5081693;28;20017;-39
2022/10/27 05:18:17;;;;;;;5.32;4.30;;;14.30;99.90;;;;;;5071980;28;20864;-41
2022/10/27 05:20:43;;;;;;;5.45;4.15;;;14.30;99.90;;;;;;5082281;28;20550;-41
2022/10/27 05:23:08;;;;;;;5.20;4.07;;;14.20;99.90;;;;;;5071954;28;20760;-39
2022/10/27 05:25:34;;;;;;;7.28;4.00;;;14.20;99.90;;;;;;5084400;28;20020;-40
2022/10/27 05:28:04;;;;;;;6.53;4.10;;;14.20;99.90;;;;;;5070584;28;20434;-42
2022/10/27 05:30:30;;;;;;;6.22;4.15;;;14.20;99.90;;;;;;5082226;28;20044;-40
2022/10/27 05:32:56;;;;;;;5.07;3.80;;;14.20;99.90;;;;;;5069734;28;20051;-41
2022/10/27 05:35:21;;;;;;;7.22;4.30;;;14.20;99.90;;;;;;5083293;28;20032;-41
2022/10/27 05:37:47;;;;;;;5.45;4.13;;;14.20;99.90;;;;;;5071241;28;20028;-40
2022/10/27 05:40:12;;;;;;;6.43;4.05;;;14.20;99.90;;;;;;5082112;28;20035;-41
2022/10/27 05:42:38;;;;;;;5.85;3.88;;;14.20;99.90;;;;;;5073933;28;20041;-39
2022/10/27 05:45:03;;;;;;;6.93;4.72;;;14.10;99.90;;;;;;5071188;28;20821;-40
2022/10/27 05:47:29;;;;;;;5.35;4.40;;;14.10;99.90;;;;;;5068392;28;20162;-40
2022/10/27 05:49:54;;;;;;;7.25;4.38;;;14.10;99.90;;;;;;5069907;28;20169;-40
2022/10/27 05:52:20;;;;;;;6.05;4.10;;;14.10;99.90;;;;;;5065584;28;20082;-40
2022/10/27 05:54:45;;;;;;;4.90;4.05;;;14.10;99.90;;;;;;5080418;28;20074;-39
2022/10/27 05:57:11;;;;;;;7.07;3.90;;;14.10;99.90;;;;;;5076666;28;20031;-40
2022/10/27 05:59:37;;;;;;;4.82;3.70;;;14.10;99.90;;;;;;5073545;28;20028;-40
2022/10/27 06:02:02;;;;;;;6.03;3.83;;;14.10;99.90;;;;;;5063485;28;20038;-38
2022/10/27 06:04:30;;;;;;;4.55;3.40;;;14.10;99.90;;;;;;5073057;28;20028;-41
2022/10/27 06:06:56;;;;;;;5.85;3.80;;;14.10;99.90;;;;;;5071860;28;20123;-40
2022/10/27 06:09:21;;;;;;;5.18;3.80;;;14.10;99.90;;;;;;5068760;28;20036;-39
2022/10/27 06:11:47;;;;;;;5.40;3.40;;;14.10;99.90;;;;;;5081858;28;20047;-37
2022/10/27 06:14:12;;;;;;;4.95;3.63;;;14.10;99.90;;;;;;5069319;28;20051;-35
2022/10/27 06:16:38;;;;;;;4.32;3.17;;;14.10;99.90;;;;;;5082278;28;20526;-39
2022/10/27 06:19:04;;;;;;;4.78;3.40;;;14.10;99.90;;;;;;5072035;28;20016;-40
2022/10/27 06:21:29;;;;;;;3.85;3.15;;;14.10;99.90;;;;;;5074790;28;20356;-39
2022/10/27 06:23:55;;;;;;;4.43;3.40;;;14.10;99.90;;;;;;5073820;28;20046;-40
2022/10/27 06:26:20;;;;;;;3.95;3.17;;;14.10;99.90;;;;;;5066048;28;20656;-39
2022/10/27 06:28:46;;;;;;;4.82;3.22;;;14.10;99.90;;;;;;5066821;28;20032;-41
2022/10/27 06:31:11;;;;;;;5.57;3.58;;;14.10;99.90;;;;;;5068520;28;20542;-40
2022/10/27 06:33:37;;;;;;;6.93;4.63;;;14.10;99.90;;;;;;5062503;28;20444;-37
2022/10/27 06:36:05;;;;;;;5.43;3.72;;;14.20;99.90;;;;;;5080518;28;20042;-38
2022/10/27 06:38:31;;;;;;;6.40;4.40;;;14.20;99.90;;;;;;5078552;28;20387;-39
2022/10/27 06:40:56;;;;;;;6.60;3.85;;;14.20;99.90;;;;;;5072012;28;20478;-39
2022/10/27 06:43:22;;;;;;;8.25;4.65;;;14.20;99.90;;;;;;5060615;28;20027;-39
2022/10/27 06:45:48;;;;;;;5.78;4.10;;;14.10;99.90;;;;;;5068969;28;20547;-40
2022/10/27 06:48:14;;;;;;;6.00;4.38;;;14.10;99.90;;;;;;5081595;28;20039;-39
2022/10/27 06:50:39;;;;;;;6.90;4.55;;;14.10;99.90;;;;;;5072775;28;20055;-37
2022/10/27 06:53:05;;;;;;;6.38;3.90;;;14.10;99.90;;;;;;5085062;28;20023;-39
2022/10/27 06:55:31;;;;;;;8.05;4.32;;;14.10;99.90;;;;;;5082472;28;20058;-39
2022/10/27 06:57:57;;;;;;;4.22;3.83;;;14.10;99.90;;;;;;5065689;28;20029;-41
2022/10/27 07:00:23;;;;;;;7.22;4.45;;;14.10;99.90;;;;;;5074073;28;20024;-37
2022/10/27 07:02:48;;;;;;;6.45;4.07;;;14.20;99.90;;;;;;5068746;28;20123;-40
2022/10/27 07:05:20;;;;;;;8.63;4.43;;;14.10;99.90;;;;;;5071769;28;20151;-38
2022/10/27 07:07:50;;;;;;;6.47;4.13;;;14.20;99.90;;;;;;5084135;28;20028;-40
2022/10/27 07:10:17;;;;;;;5.43;4.22;;;14.20;99.90;;;;;;5071998;28;20050;-39
2022/10/27 07:13:01;;;;;;;6.40;4.32;;;14.20;99.90;;;;;;5081367;28;20114;-39
2022/10/27 07:15:32;;;;;;;8.55;4.60;;;14.20;99.90;;;;;;5082093;28;20012;-39
2022/10/27 07:18:00;;;;;;;7.18;4.85;;;14.20;99.90;;;;;;5071097;28;20024;-39
2022/10/27 07:20:27;;;;;;;10.07;5.25;;;14.20;99.90;;;;;;5068492;28;20150;-38
2022/10/27 07:22:53;;;;;;;10.57;4.90;;;14.20;99.90;;;;;;5073099;28;20020;-40
2022/10/27 07:25:19;;;;;;;7.53;4.97;;;14.20;99.90;;;;;;5066320;28;20067;-38
2022/10/27 07:27:52;;;;;;;7.38;4.72;;;14.30;99.90;;;;;;5084309;28;20081;-39
2022/10/27 07:30:20;;;;;;;7.50;4.80;;;14.30;99.90;;;;;;5083269;28;20032;-37
2022/10/27 07:32:46;;;;;;;7.28;4.88;;;14.30;99.90;;;;;;5072649;28;20503;-36
2022/10/27 07:35:11;;;;;;;6.57;4.53;;;14.40;99.90;;;;;;5065759;28;20074;-40
2022/10/27 07:37:42;;;;;;;5.47;4.22;;;14.40;99.90;;;;;;5075515;28;20506;-40
2022/10/27 07:40:08;;;;;;;5.70;3.85;;;14.40;99.90;;;;;;5065702;28;20028;-36
2022/10/27 07:42:41;;;;;;;4.38;3.53;;;14.40;99.90;;;;;;5080107;28;20031;-40
2022/10/27 07:45:07;;;;;;;6.03;3.80;;;14.50;99.90;;;;;;5086029;28;20027;-40
2022/10/27 07:47:33;;;;;;;6.80;3.58;;;14.50;99.90;;;;;;5079321;28;20028;-39
2022/10/27 07:49:58;;;;;;;6.32;3.80;;;14.50;99.90;;;;;;5064546;28;20097;-39
2022/10/27 07:52:24;;;;;;;5.70;3.55;;;14.60;99.90;;;;;;5076447;28;20563;-40
2022/10/27 07:54:49;;;;;;;5.22;3.20;;;14.60;99.90;;;;;;5065813;28;20490;-40
2022/10/27 07:57:15;;;;;;;5.45;3.20;;;14.60;99.90;;;;;;5072661;28;20157;-38
2022/10/27 07:59:40;;;;;;;4.30;3.00;;;14.60;99.90;;;;;;5067591;28;20073;-39
2022/10/27 08:02:10;;;;;;;3.80;2.92;;;14.60;99.90;;;;;;5066235;28;20115;-40
2022/10/27 08:04:35;;;;;;;6.32;3.00;;;14.70;99.90;;;;;;5078979;28;20016;-39
2022/10/27 08:07:01;;;;;;;5.72;3.20;;;14.70;99.90;;;;;;5080236;28;20016;-38
2022/10/27 08:09:26;;;;;;;3.58;2.97;;;14.70;99.90;;;;;;5072353;28;20807;-39
2022/10/27 08:11:52;;;;;;;4.63;3.50;;;14.70;99.90;;;;;;5066050;28;20028;-40
2022/10/27 08:14:18;;;;;;;4.38;3.72;;;14.70;99.90;;;;;;5075148;28;20566;-40
2022/10/27 08:16:44;;;;;;;7.85;4.05;;;14.70;99.90;;;;;;5066004;28;21207;-40
2022/10/27 08:19:09;;;;;;;5.45;3.67;;;14.70;99.90;;;;;;5074763;28;20024;-40
2022/10/27 08:21:35;;;;;;;6.70;4.00;;;14.70;99.90;;;;;;5064623;28;20029;-40
2022/10/27 08:24:00;;;;;;;6.05;3.85;;;14.70;99.90;;;;;;5075703;28;20458;-38
2022/10/27 08:26:30;;;;;;;4.78;3.72;;;14.80;99.90;;;;;;5063465;28;20039;-38
2022/10/27 08:28:55;;;;;;;6.55;3.80;;;14.80;99.90;;;;;;5076332;28;20118;-39
2022/10/27 08:31:21;;;;;;;5.63;3.92;;;14.80;99.90;;;;;;5072321;28;20054;-37
2022/10/27 08:33:47;;;;;;;8.20;3.72;;;14.90;99.90;;;;;;5079822;28;20032;-36
2022/10/27 08:36:14;;;;;;;4.57;3.38;;;14.90;99.90;;;;;;5076108;28;20571;-39
2022/10/27 08:38:39;;;;;;;4.13;3.38;;;15.00;99.90;;;;;;5079533;28;20059;-38
2022/10/27 08:41:46;;;;;;;5.10;3.47;;;15.10;99.90;;;;;;5077742;28;20073;-39
2022/10/27 08:44:31;;;;;;;5.63;3.55;;;15.20;99.90;;;;;;5075420;28;20422;-39
2022/10/27 08:47:04;;;;;;;4.03;3.33;;;15.20;99.90;;;;;;5063733;28;20035;-37
2022/10/27 08:49:46;;;;;;;8.93;3.60;;;15.30;99.90;;;;;;5075618;28;20038;-36
2022/10/27 08:52:26;;;;;;;5.55;3.25;;;15.30;99.90;;;;;;5063205;28;20468;-40
2022/10/27 08:54:59;;;;;;;5.43;3.25;;;15.40;99.90;;;;;;5075747;28;20341;-41
2022/10/27 08:57:27;;;;;;;4.65;3.05;;;15.40;99.90;;;;;;5063908;28;20123;-38
2022/10/27 08:59:54;;;;;;;6.68;3.08;;;15.40;99.90;;;;;;5075914;28;20024;-39
2022/10/27 09:02:47;;;;;;;7.57;3.75;;;15.50;99.90;;;;;;5063067;28;20036;-40
2022/10/27 09:05:34;;;;;;;5.28;3.15;;;15.50;99.90;;;;;;5074836;28;20123;-40
2022/10/27 09:08:24;;;;;;;5.53;3.10;;;15.60;99.90;;;;;;5076236;28;21037;-39
2022/10/27 09:10:59;;;;;;;3.38;2.78;;;15.60;99.90;;;;;;5077812;28;20070;-39
2022/10/27 09:13:44;;;;;;;5.75;2.70;;;15.70;99.90;;;;;;5062949;28;20040;-40
2022/10/27 09:16:17;;;;;;;5.07;2.83;;;15.80;99.90;;;;;;5078421;28;20024;-41
2022/10/27 09:18:47;;;;;;;4.22;2.55;;;15.90;99.90;;;;;;5081840;28;20433;-38
2022/10/27 09:21:20;;;;;;;3.65;2.42;;;15.90;99.90;;;;;;5074184;28;20068;-38
2022/10/27 09:23:50;;;;;;;3.60;2.50;;;16.00;99.90;;;;;;5064443;28;20025;-40
2022/10/27 09:26:25;;;;;;;3.05;2.33;;;16.00;99.90;;;;;;5074394;28;20032;-40
2022/10/27 09:28:53;;;;;;;3.58;2.28;;;16.10;99.90;;;;;;5081346;28;20181;-36
2022/10/27 09:31:35;;;;;;;2.63;2.13;;;16.10;99.90;;;;;;5070712;28;20515;-41
2022/10/27 09:34:10;;;;;;;4.90;2.20;;;16.20;99.90;;;;;;5082779;28;20489;-39
2022/10/27 09:36:36;;;;;;;4.57;1.98;;;16.30;99.90;;;;;;5074380;28;20028;-38
2022/10/27 09:39:01;;;;;;;3.17;1.83;;;16.40;99.90;;;;;;5062028;28;20050;-39
2022/10/27 09:41:27;;;;;;;2.55;1.80;;;16.40;99.90;;;;;;5074898;28;20429;-37
2022/10/27 09:43:58;;;;;;;3.38;1.58;;;16.50;99.90;;;;;;5062987;28;20029;-39
2022/10/27 09:46:27;;;;;;;2.08;1.42;;;16.60;99.90;;;;;;5074763;28;20049;-39
2022/10/27 09:49:00;;;;;;;2.13;1.48;;;16.70;99.90;;;;;;5062116;28;20048;-40
2022/10/27 09:51:36;;;;;;;1.63;1.10;;;16.80;99.90;;;;;;5074795;28;20028;-40
2022/10/27 09:54:04;;;;;;;1.45;1.13;;;16.90;99.90;;;;;;5062034;28;20456;-39
2022/10/27 09:56:33;;;;;;;1.85;0.98;;;17.10;99.90;;;;;;5072878;28;20035;-39
2022/10/27 09:59:02;;;;;;;1.20;0.90;;;17.20;99.90;;;;;;5063614;28;20705;-38
2022/10/27 10:01:48;;;;;;;1.92;1.20;;;17.30;99.90;;;;;;5066453;28;20031;-37
2022/10/27 10:04:21;;;;;;;1.80;1.00;;;17.40;99.90;;;;;;5062064;28;20777;-39
2022/10/27 10:06:56;;;;;;;1.38;1.00;;;17.40;99.90;;;;;;5074362;28;20028;-41
2022/10/27 10:09:31;;;;;;;1.63;1.10;;;17.50;99.90;;;;;;5082631;28;20159;-39
2022/10/27 10:12:16;;;;;;;1.80;0.80;;;17.50;99.90;;;;;;5071147;28;20025;-40
2022/10/27 10:14:42;;;;;;;2.70;0.82;;;17.60;99.90;;;;;;5062277;28;20060;-40
2022/10/27 10:17:24;;;;;;;2.70;1.00;;;17.60;99.90;;;;;;5072733;28;20123;-38
2022/10/27 10:19:51;;;;;;;1.23;0.73;;;17.60;99.90;;;;;;5062723;28;20825;-40
2022/10/27 10:22:27;;;;;;;1.98;1.13;;;17.70;99.90;;;;;;5073001;28;20047;-40
2022/10/27 10:24:55;;;;;;;1.27;0.70;;;17.80;99.90;;;;;;5065305;28;20036;-38
2022/10/27 10:27:33;;;;;;;1.33;0.80;;;17.80;99.90;;;;;;5075969;28;20028;-37
2022/10/27 10:30:02;;;;;;;1.30;0.57;;;17.90;99.90;;;;;;5067270;28;20067;-37
2022/10/27 10:32:34;;;;;;;2.95;0.90;;;17.90;99.90;;;;;;5074429;28;20503;-38
2022/10/27 10:35:23;;;;;;;0.68;0.60;;;18.00;99.90;;;;;;5068791;28;20040;-40
2022/10/27 10:37:48;;;;;;;0.95;0.70;;;18.10;99.90;;;;;;5076434;28;20109;-38
2022/10/27 10:40:15;;;;;;;1.15;0.82;;;18.10;99.90;;;;;;5066625;28;20062;-38
2022/10/27 10:42:46;;;;;;;1.83;0.80;;;18.20;99.90;;;;;;5071782;28;20059;-40
2022/10/27 10:45:26;;;;;;;1.38;0.70;;;18.30;99.90;;;;;;5082253;28;20039;-40
2022/10/27 10:48:00;;;;;;;0.85;0.80;;;18.30;99.90;;;;;;5078008;28;20020;-40
2022/10/27 10:50:27;;;;;;;1.80;1.00;;;18.40;99.90;;;;;;5082572;28;20147;-40
2022/10/27 10:52:56;;;;;;;0.95;0.80;;;18.50;99.90;;;;;;5083468;28;20127;-40
2022/10/27 10:55:32;;;;;;;1.83;0.90;;;18.50;99.90;;;;;;5086002;28;20808;-38
2022/10/27 10:57:58;;;;;;;3.08;1.30;;;18.60;99.90;;;;;;5080003;28;20029;-40
2022/10/27 11:00:25;;;;;;;1.95;1.20;;;18.70;99.90;;;;;;5079614;28;20054;-40
2022/10/27 11:03:02;;;;;;;4.30;1.27;;;18.80;99.90;;;;;;5081116;28;20032;-37
2022/10/27 11:05:30;;;;;;;1.85;1.15;;;18.80;99.90;;;;;;5078691;28;20028;-37
2022/10/27 11:07:57;;;;;;;1.00;0.90;;;18.90;99.90;;;;;;5079892;28;20009;-38
2022/10/27 11:10:32;;;;;;;1.67;1.10;;;18.90;99.90;;;;;;5074928;28;20115;-39
2022/10/27 11:13:03;;;;;;;2.97;1.00;;;19.00;99.90;;;;;;5067963;28;20021;-38
2022/10/27 11:15:31;;;;;;;1.70;0.80;;;19.10;99.90;;;;;;5074311;28;20058;-38
2022/10/27 11:18:15;;;;;;;1.15;0.75;;;19.20;99.90;;;;;;5067700;28;20020;-39
2022/10/27 11:20:43;;;;;;;1.35;0.90;;;19.30;99.90;;;;;;5076116;28;20028;-39
2022/10/27 11:23:35;;;;;;;1.83;0.90;;;19.30;99.90;;;;;;5083592;28;20034;-38
2022/10/27 11:26:02;;;;;;;2.38;0.80;;;19.30;99.90;;;;;;5080394;28;20020;-38
2022/10/27 11:28:31;;;;;;;1.42;0.85;;;19.30;99.90;;;;;;5078187;28;20099;-38
2022/10/27 11:31:09;;;;;;;2.13;0.82;;;19.40;99.90;;;;;;5076169;28;20060;-35
2022/10/27 11:33:57;;;;;;;2.25;0.90;;;19.40;99.90;;;;;;5070475;28;20040;-37
2022/10/27 11:36:41;;;;;;;3.58;0.90;;;19.40;99.90;;;;;;5075904;28;20032;-39
2022/10/27 11:39:14;;;;;;;2.45;0.80;;;19.50;99.90;;;;;;5082358;28;20066;-39
2022/10/27 11:42:06;;;;;;;1.20;1.05;;;19.50;99.90;;;;;;5072336;28;20021;-38
2022/10/27 11:44:45;;;;;;;1.05;0.90;;;19.40;99.90;;;;;;5067859;28;20033;-34
2022/10/27 11:47:23;;;;;;;2.33;0.95;;;19.50;99.90;;;;;;5080496;28;20447;-36
2022/10/27 11:50:02;;;;;;;2.78;0.85;;;19.40;99.90;;;;;;5080659;28;20100;-40
2022/10/27 11:52:44;;;;;;;1.23;1.10;;;19.40;99.90;;;;;;5067523;28;20827;-40
2022/10/27 11:55:13;;;;;;;2.00;0.93;;;19.40;99.90;;;;;;5073269;28;20131;-39
2022/10/27 11:58:04;;;;;;;1.98;0.85;;;19.50;99.90;;;;;;5067753;28;20032;-38
2022/10/27 12:00:37;;;;;;;1.20;0.80;;;19.50;99.90;;;;;;5074161;28;20032;-39
2022/10/27 12:03:24;;;;;;;2.40;0.88;;;19.50;99.90;;;;;;5064826;28;20392;-38
2022/10/27 12:06:18;;;;;;;1.30;0.70;;;19.60;99.90;;;;;;5076512;28;20086;-39
2022/10/27 12:08:52;;;;;;;2.92;1.00;;;19.60;99.90;;;;;;5084601;28;20077;-39
2022/10/27 12:11:37;;;;;;;1.73;0.75;;;19.70;99.90;;;;;;5079852;28;20107;-38
2022/10/27 12:14:26;;;;;;;1.30;0.75;;;19.70;99.90;;;;;;5081564;28;20767;-41
2022/10/27 12:17:02;;;;;;;1.83;0.93;;;19.70;99.90;;;;;;5071600;28;20103;-38
2022/10/27 12:19:34;;;;;;;2.08;1.05;;;19.70;99.90;;;;;;5084084;28;20464;-40
2022/10/27 12:22:18;;;;;;;2.88;1.00;;;19.80;99.90;;;;;;5072313;28;20020;-39
2022/10/27 12:24:57;;;;;;;2.55;0.80;;;19.80;99.90;;;;;;5083225;28;20032;-38
2022/10/27 12:27:29;;;;;;;1.70;0.77;;;19.90;99.90;;;;;;5075160;28;20052;-38
2022/10/27 12:30:01;;;;;;;3.20;0.95;;;19.90;99.90;;;;;;5081615;28;20074;-37
2022/10/27 12:32:49;;;;;;;1.75;0.90;;;19.90;99.90;;;;;;5076500;28;20043;-39
2022/10/27 12:35:33;;;;;;;2.20;0.77;;;19.90;99.90;;;;;;5080129;28;20039;-38
2022/10/27 12:38:08;;;;;;;3.10;0.85;;;19.90;99.90;;;;;;5072297;28;20529;-40
2022/10/27 12:40:44;;;;;;;2.35;1.40;;;20.00;99.90;;;;;;5082440;28;20028;-39
2022/10/27 12:43:19;;;;;;;1.92;1.20;;;19.90;99.90;;;;;;5072236;28;20082;-39
2022/10/27 12:46:18;;;;;;;2.42;1.10;;;19.90;99.90;;;;;;5082321;28;20037;-37
2022/10/27 12:49:06;;;;;;;1.38;0.98;;;19.90;99.90;;;;;;5075203;28;20028;-40
2022/10/27 12:51:43;;;;;;;1.42;0.80;;;19.80;99.90;;;;;;5079073;28;20035;-39
2022/10/27 12:54:35;;;;;;;1.88;1.10;;;19.80;99.90;;;;;;5076598;28;20024;-37
2022/10/27 12:57:21;;;;;;;1.45;0.88;;;19.70;99.90;;;;;;5076541;28;20039;-40
2022/10/27 13:00:06;;;;;;;1.30;0.95;;;19.70;99.90;;;;;;5081715;28;20032;-40
2022/10/27 13:02:43;;;;;;;1.45;0.90;;;19.60;99.90;;;;;;5073072;28;20021;-39
2022/10/27 13:05:25;;;;;;;2.40;1.00;;;19.60;99.90;;;;;;5082262;28;20824;-40
2022/10/27 13:08:20;;;;;;;2.22;1.13;;;19.60;99.90;;;;;;5071257;28;20032;-40